createdAt,value
2023-03-22T00:02:48.829Z,69.48
2023-03-22T00:05:57.192Z,69.64
2023-03-22T00:08:59.201Z,69.49
2023-03-22T00:12:01.001Z,69.75
2023-03-22T00:15:02.858Z,69.78
2023-03-22T00:18:05.852Z,69.72
2023-03-22T00:21:12.443Z,69.92
2023-03-22T00:24:14.282Z,69.84
2023-03-22T00:27:15.955Z,69.67
2023-03-22T00:30:18.027Z,69.49
2023-03-22T00:33:19.894Z,69.39
2023-03-22T00:36:21.727Z,69.22
2023-03-22T00:39:27.083Z,69.23
2023-03-22T00:42:28.832Z,69.13
2023-03-22T00:45:30.676Z,69.26
2023-03-22T00:48:32.864Z,69.13
2023-03-22T00:51:34.533Z,69.16
2023-03-22T00:54:36.326Z,68.95
2023-03-22T00:57:38.232Z,69.28
2023-03-22T01:00:40.282Z,69.33
2023-03-22T01:03:43.752Z,69.49
2023-03-22T01:06:49.014Z,69.65
2023-03-22T01:09:51.969Z,69.68
2023-03-22T01:12:54.154Z,69.91
2023-03-22T01:15:56.328Z,69.92
2023-03-22T01:18:58.392Z,69.92
2023-03-22T01:22:00.671Z,70.14
2023-03-22T01:25:03.167Z,70.23
2023-03-22T01:28:06.900Z,70.16
2023-03-22T01:31:08.888Z,70.00
2023-03-22T01:34:10.738Z,70.17
2023-03-22T01:37:13.080Z,70.11
2023-03-22T01:40:19.547Z,70.13
2023-03-22T01:43:21.862Z,70.18
2023-03-22T01:46:23.604Z,70.18
2023-03-22T01:49:33.758Z,70.05
2023-03-22T01:52:37.756Z,69.68
2023-03-22T01:55:47.308Z,69.71
2023-03-22T01:58:56.700Z,69.57
2023-03-22T02:02:07.770Z,69.77
2023-03-22T02:05:12.375Z,69.88
2023-03-22T02:08:15.053Z,69.45
2023-03-22T02:11:42.880Z,69.58
2023-03-22T02:15:10.494Z,69.94
2023-03-22T02:18:51.897Z,69.66
2023-03-22T02:21:56.330Z,69.84
2023-03-22T02:25:31.227Z,70.19
2023-03-22T02:28:46.244Z,70.17
2023-03-22T02:32:06.741Z,70.21
2023-03-22T02:35:27.131Z,70.74
2023-03-22T02:38:52.581Z,71.01
2023-03-22T02:42:12.574Z,70.43
2023-03-22T02:45:21.702Z,70.68
2023-03-22T02:48:39.523Z,70.76
2023-03-22T02:51:48.022Z,70.82
2023-03-22T02:55:08.056Z,70.57
2023-03-22T02:58:15.704Z,70.42
2023-03-22T03:01:29.313Z,70.46
2023-03-22T03:04:35.607Z,70.32
2023-03-22T03:07:38.691Z,70.78
2023-03-22T03:10:42.546Z,71.02
2023-03-22T03:13:47.855Z,71.33
2023-03-22T03:17:06.422Z,71.46
2023-03-22T03:21:03.330Z,71.65
2023-03-22T03:24:30.568Z,71.39
2023-03-22T03:27:49.862Z,71.04
2023-03-22T03:31:06.662Z,70.82
2023-03-22T03:34:22.215Z,70.51
2023-03-22T03:37:31.693Z,70.32
2023-03-22T03:40:37.757Z,70.36
2023-03-22T03:43:42.097Z,70.22
2023-03-22T03:46:46.072Z,70.11
2023-03-22T03:49:47.930Z,70.11
2023-03-22T03:52:49.834Z,69.95
2023-03-22T03:55:51.607Z,69.98
2023-03-22T03:58:53.392Z,69.76
2023-03-22T04:01:55.676Z,69.61
2023-03-22T04:05:04.083Z,69.45
2023-03-22T04:08:05.825Z,69.37
2023-03-22T04:11:08.095Z,69.26
2023-03-22T04:14:10.431Z,68.93
2023-03-22T04:17:13.024Z,68.98
2023-03-22T04:20:15.248Z,69.03
2023-03-22T04:23:17.397Z,68.89
2023-03-22T04:26:21.841Z,68.78
2023-03-22T04:29:48.237Z,68.75
2023-03-22T04:33:07.945Z,68.65
2023-03-22T04:36:48.080Z,68.29
2023-03-22T04:40:01.345Z,68.25
2023-03-22T04:43:26.050Z,68.30
2023-03-22T04:46:36.874Z,68.54
2023-03-22T04:49:41.867Z,68.54
2023-03-22T04:52:44.174Z,68.66
2023-03-22T04:55:46.199Z,68.59
2023-03-22T04:58:48.205Z,68.79
2023-03-22T05:01:51.659Z,69.11
2023-03-22T05:04:56.956Z,69.06
2023-03-22T05:08:14.419Z,68.94
2023-03-22T05:11:20.271Z,68.91
2023-03-22T05:14:34.004Z,68.91
2023-03-22T05:17:36.070Z,68.70
2023-03-22T05:20:38.579Z,68.64
2023-03-22T05:23:58.195Z,68.49
2023-03-22T05:27:03.990Z,68.33
2023-03-22T05:30:08.044Z,68.04
2023-03-22T05:33:22.016Z,67.48
2023-03-22T05:36:29.687Z,67.22
2023-03-22T05:39:54.580Z,66.96
2023-03-22T05:43:01.668Z,66.51
2023-03-22T05:46:06.553Z,66.01
2023-03-22T05:49:19.819Z,65.66
2023-03-22T05:52:21.781Z,65.27
2023-03-22T05:55:44.892Z,64.88
2023-03-22T05:58:47.265Z,64.49
2023-03-22T06:01:52.136Z,64.24
2023-03-22T06:04:57.808Z,63.78
2023-03-22T06:08:00.267Z,63.25
2023-03-22T06:11:02.169Z,62.95
2023-03-22T06:14:04.690Z,60.67
2023-03-22T06:17:21.348Z,57.12
2023-03-22T06:20:25.848Z,55.59
2023-03-22T06:23:34.234Z,53.26
2023-03-22T06:26:36.150Z,52.19
2023-03-22T06:29:38.134Z,52.98
2023-03-22T06:32:41.556Z,54.29
2023-03-22T06:35:44.429Z,55.22
2023-03-22T06:38:50.873Z,55.76
2023-03-22T06:41:52.600Z,56.19
2023-03-22T06:44:54.267Z,56.70
2023-03-22T06:48:06.116Z,57.10
2023-03-22T06:51:32.173Z,57.56
2023-03-22T06:54:34.265Z,57.79
2023-03-22T06:57:36.119Z,57.99
2023-03-22T07:00:39.012Z,58.22
2023-03-22T07:03:42.418Z,58.38
2023-03-22T07:06:48.439Z,58.43
2023-03-22T07:09:51.268Z,58.65
2023-03-22T07:12:53.163Z,58.55
2023-03-22T07:16:00.175Z,58.61
2023-03-22T07:19:10.146Z,58.33
2023-03-22T07:22:12.081Z,58.34
2023-03-22T07:25:13.893Z,58.23
2023-03-22T07:28:16.479Z,58.31
2023-03-22T07:31:18.760Z,58.04
2023-03-22T07:34:27.210Z,57.82
2023-03-22T07:37:49.262Z,57.65
2023-03-22T07:40:57.231Z,57.52
2023-03-22T07:44:17.438Z,57.04
2023-03-22T07:47:39.866Z,56.55
2023-03-22T07:51:03.047Z,55.83
2023-03-22T07:54:07.597Z,54.67
2023-03-22T07:57:09.916Z,53.56
2023-03-22T08:00:18.595Z,52.78
2023-03-22T08:03:30.458Z,51.81
2023-03-22T08:06:42.722Z,50.66
2023-03-22T08:09:49.656Z,50.89
2023-03-22T08:12:51.392Z,50.41
2023-03-22T08:15:59.130Z,49.66
2023-03-22T08:19:01.918Z,48.63
2023-03-22T08:22:56.837Z,47.99
2023-03-22T08:26:02.135Z,46.93
2023-03-22T08:29:04.971Z,46.85
2023-03-22T08:32:10.669Z,47.04
2023-03-22T08:35:12.985Z,47.08
2023-03-22T08:38:16.868Z,47.52
2023-03-22T08:41:23.674Z,47.12
2023-03-22T08:44:26.945Z,47.30
2023-03-22T08:47:30.349Z,47.31
2023-03-22T08:50:37.670Z,46.84
2023-03-22T08:53:51.447Z,46.62
2023-03-22T08:57:15.481Z,46.46
2023-03-22T09:00:48.714Z,46.69
2023-03-22T09:04:02.343Z,46.79
2023-03-22T09:07:05.303Z,46.74
2023-03-22T09:10:09.367Z,46.44
2023-03-22T09:13:16.858Z,46.71
2023-03-22T09:16:26.131Z,46.52
2023-03-22T09:19:30.494Z,46.86
2023-03-22T09:22:33.037Z,47.08
2023-03-22T09:25:37.278Z,47.42
2023-03-22T09:28:40.137Z,47.36
2023-03-22T09:31:44.660Z,47.25
2023-03-22T09:34:57.632Z,47.04
2023-03-22T09:38:06.128Z,46.68
2023-03-22T09:41:16.821Z,46.50
2023-03-22T09:44:31.944Z,45.98
2023-03-22T09:47:44.876Z,45.88
2023-03-22T09:50:51.988Z,45.84
2023-03-22T09:53:54.196Z,45.46
2023-03-22T09:57:00.084Z,45.22
2023-03-22T10:00:46.790Z,45.24
2023-03-22T10:04:10.068Z,44.45
2023-03-22T10:07:20.416Z,43.98
2023-03-22T10:10:24.271Z,43.64
2023-03-22T10:13:48.951Z,43.61
2023-03-22T10:16:56.542Z,42.06
2023-03-22T10:20:09.091Z,40.50
2023-03-22T10:23:17.236Z,40.65
2023-03-22T10:26:20.067Z,40.55
2023-03-22T10:29:30.658Z,40.13
2023-03-22T10:32:57.837Z,39.86
2023-03-22T10:36:02.941Z,39.31
2023-03-22T10:39:17.229Z,38.91
2023-03-22T10:42:26.942Z,38.52
2023-03-22T10:45:34.489Z,38.55
2023-03-22T10:48:42.089Z,38.26
2023-03-22T10:51:49.808Z,38.09
2023-03-22T10:54:52.083Z,38.12
2023-03-22T10:58:18.359Z,37.74
2023-03-22T11:01:33.507Z,37.82
2023-03-22T11:04:38.038Z,38.17
2023-03-22T11:07:44.590Z,37.73
2023-03-22T11:10:52.063Z,37.76
2023-03-22T11:14:00.675Z,38.06
2023-03-22T11:17:06.159Z,38.00
2023-03-22T11:20:16.172Z,37.95
2023-03-22T11:23:20.781Z,38.01
2023-03-22T11:26:35.690Z,37.60
2023-03-22T11:29:48.458Z,37.76
2023-03-22T11:33:03.877Z,37.05
2023-03-22T11:36:17.171Z,37.06
2023-03-22T11:39:21.891Z,37.60
2023-03-22T11:42:24.146Z,37.76
2023-03-22T11:45:36.144Z,37.60
2023-03-22T11:48:42.255Z,37.41
2023-03-22T11:51:46.205Z,37.38
2023-03-22T11:54:49.869Z,37.13
2023-03-22T11:57:55.975Z,36.79
2023-03-22T12:01:02.836Z,37.01
2023-03-22T12:04:10.418Z,37.22
2023-03-22T12:07:17.179Z,37.34
2023-03-22T12:10:41.053Z,37.66
2023-03-22T12:14:00.579Z,37.49
2023-03-22T12:17:11.477Z,37.96
2023-03-22T12:20:33.096Z,38.07
2023-03-22T12:23:35.357Z,37.80
2023-03-22T12:26:37.768Z,37.75
2023-03-22T12:29:46.805Z,37.80
2023-03-22T12:33:21.326Z,37.16
2023-03-22T12:36:33.025Z,36.86
2023-03-22T12:39:46.757Z,36.87
2023-03-22T12:43:00.240Z,37.22
2023-03-22T12:46:05.857Z,37.16
2023-03-22T12:49:20.710Z,37.03
2023-03-22T12:52:44.676Z,37.20
2023-03-22T12:55:50.000Z,37.13
2023-03-22T12:59:03.561Z,36.85
2023-03-22T13:02:19.125Z,36.80
2023-03-22T13:05:22.058Z,36.69
2023-03-22T13:08:24.857Z,36.55
2023-03-22T13:11:27.780Z,36.64
2023-03-22T13:15:28.256Z,36.84
2023-03-22T13:18:38.152Z,36.75
2023-03-22T13:21:41.403Z,36.90
2023-03-22T13:25:13.158Z,36.97
2023-03-22T13:28:26.429Z,37.11
2023-03-22T13:31:42.755Z,36.83
2023-03-22T13:34:48.618Z,36.99
2023-03-22T13:37:51.925Z,37.04
2023-03-22T13:41:04.059Z,36.99
2023-03-22T13:44:27.555Z,36.75
2023-03-22T13:47:31.713Z,36.66
2023-03-22T13:50:35.308Z,36.82
2023-03-22T13:53:41.410Z,37.10
2023-03-22T13:56:57.777Z,37.19
2023-03-22T14:00:21.007Z,37.19
2023-03-22T14:03:30.617Z,37.08
2023-03-22T14:06:39.559Z,37.02
2023-03-22T14:10:00.560Z,37.18
2023-03-22T14:13:17.354Z,37.29
2023-03-22T14:16:41.820Z,37.67
2023-03-22T14:19:44.279Z,37.78
